Time;durP1;ratioP1;P1;durP2;ratioP2;P2;SDS_P1;SDS_P2;PMS_P1;PMS_P2;Temp;Humidity;BMP_temperature;BMP_pressure;BME280_temperature;BME280_humidity;BME280_pressure;Samples;Min_cycle;Max_cycle;Signal;HPM_P1;HPM_P2
2024/02/18 00:36:14;;;;;;;1.33;1.20;;;3.60;94.20;;;;;;4717204;29;20548;-84
2024/02/18 01:01:54;;;;;;;1.43;1.33;;;3.70;94.20;;;;;;4685340;29;20435;-82
2024/02/18 01:37:22;;;;;;;1.40;1.30;;;3.60;92.70;;;;;;4864285;28;20621;-84
2024/02/18 02:12:52;;;;;;;1.80;1.70;;;3.60;93.40;;;;;;4830015;28;20220;-84
2024/02/18 02:58:08;;;;;;;1.50;1.40;;;3.70;92.90;;;;;;4901543;28;20469;-83
2024/02/18 03:23:47;;;;;;;1.30;1.20;;;3.60;91.20;;;;;;4783359;29;20577;-86
2024/02/18 03:54:17;;;;;;;1.60;1.50;;;3.50;93.90;;;;;;4799145;29;20203;-85
2024/02/18 04:19:29;;;;;;;1.83;1.43;;;3.60;95.40;;;;;;4807500;29;20201;-82
2024/02/18 04:44:31;;;;;;;1.57;1.17;;;3.40;93.20;;;;;;4585100;30;20793;-85
2024/02/18 05:04:53;;;;;;;1.50;0.90;;;3.40;93.10;;;;;;4565988;30;20566;-84
2024/02/18 05:35:40;;;;;;;1.20;1.10;;;2.80;95.70;;;;;;4763996;29;20266;-84
2024/02/18 06:01:04;;;;;;;1.03;1.03;;;3.10;91.20;;;;;;4850912;28;20200;-83
2024/02/18 06:26:18;;;;;;;1.37;1.00;;;3.10;90.20;;;;;;4769721;29;20373;-85
2024/02/18 06:46:09;;;;;;;1.40;1.10;;;2.60;94.10;;;;;;4657267;30;20254;-84
2024/02/18 07:11:38;;;;;;;0.93;0.93;;;3.10;91.70;;;;;;4733662;29;20929;-83
2024/02/18 07:37:13;;;;;;;0.70;0.70;;;3.40;90.00;;;;;;4736490;29;20268;-82
2024/02/18 08:13:02;;;;;;;1.40;1.13;;;3.60;89.10;;;;;;4718342;29;20427;-84
2024/02/18 08:42:45;;;;;;;1.97;1.20;;;3.90;82.40;;;;;;4810185;29;20565;-85
2024/02/18 09:03:35;;;;;;;0.80;0.80;;;4.00;80.50;;;;;;4764624;29;20278;-85
2024/02/18 09:29:05;;;;;;;0.87;0.87;;;4.00;79.70;;;;;;4780761;29;20242;-84
2024/02/18 09:59:25;;;;;;;1.73;1.00;;;4.40;77.30;;;;;;4770763;29;20818;-85
2024/02/18 10:29:53;;;;;;;1.03;1.00;;;4.60;76.70;;;;;;4661168;30;20245;-84
2024/02/18 11:04:52;;;;;;;0.87;0.83;;;5.30;64.80;;;;;;4823416;29;20314;-87
2024/02/18 11:20:41;;;;;;;1.03;1.00;;;5.10;70.30;;;;;;4763251;29;20235;-85
2024/02/18 11:50:49;;;;;;;1.40;1.30;;;5.40;69.20;;;;;;4662708;29;20233;-85
2024/02/18 12:11:22;;;;;;;1.50;1.20;;;5.20;70.10;;;;;;4666198;30;20918;-82
2024/02/18 12:41:44;;;;;;;1.70;1.50;;;5.60;61.30;;;;;;4597123;29;20229;-85
2024/02/18 13:06:36;;;;;;;1.67;1.50;;;5.90;60.60;;;;;;4787329;29;21172;-83
2024/02/18 13:22:13;;;;;;;1.27;1.17;;;6.00;60.80;;;;;;4838051;29;20202;-86
2024/02/18 13:52:28;;;;;;;3.03;1.73;;;6.20;58.20;;;;;;4846685;28;20212;-86
2024/02/18 14:17:55;;;;;;;1.40;1.30;;;5.90;59.40;;;;;;4911088;28;20503;-82
2024/02/18 14:43:22;;;;;;;2.00;1.53;;;6.10;60.50;;;;;;4794534;29;20294;-86
2024/02/18 15:13:55;;;;;;;1.80;1.50;;;5.80;63.50;;;;;;4743526;29;20300;-85
2024/02/18 15:49:21;;;;;;;2.47;1.67;;;4.60;77.10;;;;;;4802206;29;20889;-86
2024/02/18 16:09:29;;;;;;;2.17;1.70;;;2.80;84.60;;;;;;4891981;28;20361;-84
2024/02/18 16:29:42;;;;;;;4.13;2.00;;;1.70;91.10;;;;;;4856839;28;20298;-83
2024/02/18 16:55:01;;;;;;;4.87;2.50;;;0.80;99.90;;;;;;4797101;29;20703;-85
2024/02/18 17:10:27;;;;;;;6.70;4.30;;;0.40;99.90;;;;;;5993300;23;20415;-83
2024/02/18 17:46:01;;;;;;;8.43;5.90;;;-0.50;99.90;;;;;;4930823;28;20229;-85
2024/02/18 18:21:26;;;;;;;14.37;7.50;;;-0.50;99.90;;;;;;4694127;30;20198;-82
2024/02/18 18:56:27;;;;;;;22.83;13.73;;;1.20;99.90;;;;;;4836810;28;20602;-85
2024/02/18 19:17:25;;;;;;;22.00;13.30;;;1.60;99.90;;;;;;4747242;29;20235;-85
2024/02/18 19:21:45;;;;;;;20.13;13.03;;;1.80;99.90;;;;;;4666281;30;20353;-88
2024/02/18 19:57:15;;;;;;;18.03;12.10;;;1.20;99.90;;;;;;4827852;29;20405;-85
2024/02/18 20:23:03;;;;;;;24.87;12.30;;;0.80;99.90;;;;;;4842927;28;20232;-85
2024/02/18 20:53:39;;;;;;;19.43;12.27;;;0.80;99.90;;;;;;4931359;28;20208;-86
2024/02/18 21:13:27;;;;;;;18.93;11.83;;;0.70;99.90;;;;;;4736069;29;20656;-84
2024/02/18 21:34:35;;;;;;;18.90;11.30;;;0.50;99.90;;;;;;4789611;29;20309;-87
2024/02/18 21:38:48;;;;;;;17.03;10.27;;;0.40;99.90;;;;;;4673286;30;20856;-85
2024/02/18 21:59:45;;;;;;;18.43;11.70;;;0.50;99.90;;;;;;4747381;29;20273;-86
2024/02/18 22:20:09;;;;;;;21.50;12.63;;;0.70;99.90;;;;;;4710180;29;20287;-86
2024/02/18 22:40:12;;;;;;;19.70;12.57;;;0.80;99.90;;;;;;4601688;30;20287;-83
2024/02/18 23:05:27;;;;;;;23.03;14.43;;;0.70;99.90;;;;;;4593110;30;20625;-87
2024/02/18 23:25:32;;;;;;;23.30;15.20;;;0.60;99.90;;;;;;4560728;30;20619;-83
2024/02/18 23:51:13;;;;;;;24.73;15.00;;;0.70;99.90;;;;;;4608088;30;20435;-84
